Aeroporto :
LOGIN :

Iscrizione | Disclaimer

   EN    FR    IT 

 










Sommario :    VFR   VFR Marginale   IFR   IFR Intensivo   IFR Molto Intensivo
Visibilità : 
Base nubi : 
>= 8 km
>= 3000ft
5 / 8 km
1000 / 3000 ft
1500m / 5 km
500 / 1000 ft
800 / 1500m
200 / 500 ft
< 800m
< 200 ft
Simboli :   Temporali  Nebbia  Neve Forte  Precipitazioni Forti  Vento > 20 kt
SIGMETs :   Varie  Temporali  Ghiacco  Turbolenza  Onda orograficha  Ceneri Vulcaniche






- Altitudine del aeroporto : 57 ft
- Codice IATA : KRS


ENCN - Kristiansand Kjevik

ULTIMO METAR :
  • 311820Z AUTO 12010KT 080V160 2500 RA SCT002/// BKN006/// BKN017/// 11/10 Q1010

METARs OBSOLETI :
  • 311750Z AUTO 12010KT 3700 RA VV013 11/10 Q1010
  • 311720Z 12008KT 080V150 9999 -DZ FEW006 BKN011 11/09 Q1011
  • 311650Z 09008KT 9999 BKN009 11/09 Q1011
  • 311620Z 07007KT 9999 FEW010 BKN014 10/09 Q1012
  • 311550Z 07006KT 9999 BKN010 09/07 Q1013

Previsioni scadute.



MetMap, La meteo Aeronautica in un colpo d'occhio ! - Copyright ORBIFLY Dicembre 2007 - Disclaimer

ORBIFLY MET'MAP TEAM :

Programmazione e sviluppo : Alexandra Zaïnal
Concezione : Baudouin d'Aumeries
Aiuto per la programmazione : Marc-Olivier Méhu
Supporto tecnico e logistico : Manuel Goepfert
Aiuto per la traduzione : Arnaldo La Scala

Contatto : metmap@orbifly.com




FONTI E CREDITI :

   NOAA